Terminal Aerodrome Forecast
Issued by NWS

Home | Current Version | Previous Version | Text Only | Print | Product List | Glossary On
Versions: 1 2 3 4 5 6 7 8 9 10 11 12 13 14 15 16 17 18
000
FTUS43 KDVN 141000 AAA
TAFBRL
TAF AMD
KBRL 141008Z 1410/1506 34020G30KT P6SM OVC015
     FM141700 34017G25KT P6SM BKN035
      TEMPO 1417/1421 2SM -RASN OVC020
     FM150300 33007KT P6SM SCT250=

USA.gov is the U.S. government's official web portal to all federal, state and local government web resources and services.